createdAt,value
2018-07-14T00:01:25.486Z,64.30
2018-07-14T00:03:53.949Z,64.30
2018-07-14T00:08:50.473Z,64.60
2018-07-14T00:11:18.924Z,64.60
2018-07-14T00:13:47.393Z,64.70
2018-07-14T00:16:15.774Z,64.60
2018-07-14T00:18:44.154Z,65.20
2018-07-14T00:21:12.741Z,65.00
2018-07-14T00:23:41.109Z,65.20
2018-07-14T00:26:09.564Z,65.60
2018-07-14T00:28:38.018Z,65.50
2018-07-14T00:31:06.476Z,65.60
2018-07-14T00:33:35.022Z,65.60
2018-07-14T00:36:03.553Z,65.80
2018-07-14T00:38:31.970Z,66.60
2018-07-14T00:41:00.375Z,66.00
2018-07-14T00:43:28.731Z,65.80
2018-07-14T00:45:57.186Z,66.20
2018-07-14T00:48:25.620Z,66.50
2018-07-14T00:50:54.036Z,66.50
2018-07-14T00:53:22.421Z,66.50
2018-07-14T00:55:50.825Z,66.50
2018-07-14T00:58:19.338Z,66.40
2018-07-14T01:03:15.933Z,66.60
2018-07-14T01:05:44.293Z,66.90
2018-07-14T01:08:12.755Z,67.00
2018-07-14T01:10:41.145Z,66.90
2018-07-14T01:18:05.735Z,67.20
2018-07-14T01:20:34.130Z,67.50
2018-07-14T01:23:02.520Z,67.50
2018-07-14T01:25:30.934Z,67.70
2018-07-14T01:27:59.338Z,68.00
2018-07-14T01:30:27.717Z,67.90
2018-07-14T01:32:56.133Z,68.20
2018-07-14T01:35:24.571Z,68.20
2018-07-14T01:37:52.993Z,68.50
2018-07-14T01:40:21.444Z,68.60
2018-07-14T01:42:49.811Z,69.20
2018-07-14T01:45:18.194Z,69.00
2018-07-14T01:47:46.562Z,68.50
2018-07-14T01:50:14.914Z,68.50
2018-07-14T01:52:43.327Z,68.80
2018-07-14T01:55:11.694Z,69.10
2018-07-14T01:57:40.105Z,69.10
2018-07-14T02:00:08.916Z,69.10
2018-07-14T02:02:37.318Z,69.10
2018-07-14T02:05:05.751Z,69.40
2018-07-14T02:07:34.184Z,69.50
2018-07-14T02:10:02.585Z,70.10
2018-07-14T02:12:30.949Z,70.20
2018-07-14T02:14:59.329Z,69.90
2018-07-14T02:17:27.762Z,69.80
2018-07-14T02:19:56.146Z,70.10
2018-07-14T02:22:24.534Z,70.10
2018-07-14T02:24:52.921Z,70.30
2018-07-14T02:27:21.523Z,70.80
2018-07-14T02:29:49.920Z,70.80
2018-07-14T02:32:18.372Z,70.70
2018-07-14T02:34:46.901Z,70.80
2018-07-14T02:37:15.345Z,70.70
2018-07-14T02:39:43.690Z,70.90
2018-07-14T02:42:12.102Z,71.00
2018-07-14T02:44:40.540Z,71.30
2018-07-14T02:47:09.712Z,71.40
2018-07-14T02:49:38.137Z,71.40
2018-07-14T02:52:06.571Z,71.50
2018-07-14T02:54:35.006Z,71.60
2018-07-14T02:57:03.403Z,72.00
2018-07-14T02:59:31.799Z,71.60
2018-07-14T03:02:00.221Z,71.90
2018-07-14T03:04:28.618Z,72.00
2018-07-14T03:06:57.078Z,71.80
2018-07-14T03:09:25.493Z,71.90
2018-07-14T03:11:53.938Z,72.10
2018-07-14T03:14:22.325Z,71.80
2018-07-14T03:19:19.067Z,72.10
2018-07-14T03:21:47.394Z,72.00
2018-07-14T03:24:16.218Z,72.10
2018-07-14T03:26:44.599Z,72.30
2018-07-14T03:29:12.986Z,72.90
2018-07-14T03:31:41.417Z,72.40
2018-07-14T03:34:09.837Z,72.50
2018-07-14T03:36:38.300Z,72.50
2018-07-14T03:39:06.780Z,72.60
2018-07-14T03:41:35.194Z,72.80
2018-07-14T03:44:03.592Z,72.80
2018-07-14T03:46:31.960Z,72.70
2018-07-14T03:49:00.373Z,72.80
2018-07-14T03:51:28.755Z,73.00
2018-07-14T03:53:57.222Z,73.00
2018-07-14T03:56:25.617Z,73.20
2018-07-14T03:58:54.022Z,73.20
2018-07-14T04:01:22.431Z,73.50
2018-07-14T04:03:50.828Z,73.30
2018-07-14T04:06:19.230Z,73.40
2018-07-14T04:11:15.750Z,73.60
2018-07-14T04:13:44.606Z,73.80
2018-07-14T04:16:13.074Z,73.80
2018-07-14T04:18:41.485Z,73.80
2018-07-14T04:21:09.910Z,74.20
2018-07-14T04:23:38.265Z,74.00
2018-07-14T04:26:06.725Z,74.40
2018-07-14T04:28:35.199Z,74.30
2018-07-14T04:31:03.673Z,74.00
2018-07-14T04:33:32.087Z,74.00
2018-07-14T04:36:00.477Z,74.00
2018-07-14T04:38:28.889Z,73.90
2018-07-14T04:40:57.275Z,73.40
2018-07-14T04:43:25.645Z,74.00
2018-07-14T04:45:54.000Z,74.40
2018-07-14T04:48:22.421Z,74.20
2018-07-14T04:50:50.779Z,73.80
2018-07-14T04:53:19.185Z,74.00
2018-07-14T04:55:47.609Z,74.10
2018-07-14T04:58:16.003Z,73.90
2018-07-14T05:00:44.450Z,73.90
2018-07-14T05:03:12.968Z,73.90
2018-07-14T05:05:41.422Z,73.50
2018-07-14T05:08:10.193Z,73.80
2018-07-14T05:10:38.685Z,73.50
2018-07-14T05:13:07.097Z,73.70
2018-07-14T05:15:35.505Z,73.50
2018-07-14T05:18:04.001Z,73.60
2018-07-14T05:20:32.614Z,73.80
2018-07-14T05:23:01.042Z,72.60
2018-07-14T05:25:29.559Z,72.50
2018-07-14T05:27:57.975Z,72.80
2018-07-14T05:30:26.381Z,73.10
2018-07-14T05:32:54.845Z,72.90
2018-07-14T05:35:23.352Z,72.80
2018-07-14T05:37:52.583Z,72.60
2018-07-14T05:40:21.150Z,72.00
2018-07-14T05:42:49.797Z,71.70
2018-07-14T05:45:18.201Z,71.40
2018-07-14T05:47:46.648Z,71.70
2018-07-14T05:50:15.033Z,70.10
2018-07-14T05:52:43.485Z,72.10
2018-07-14T05:55:11.927Z,71.80
2018-07-14T05:57:40.340Z,71.20
2018-07-14T06:00:09.295Z,70.80
2018-07-14T06:02:37.715Z,70.10
2018-07-14T06:07:34.373Z,70.60
2018-07-14T06:10:03.331Z,69.40
2018-07-14T06:12:31.770Z,68.70
2018-07-14T06:15:00.185Z,68.50
2018-07-14T06:17:28.647Z,68.00
2018-07-14T06:19:57.047Z,68.10
2018-07-14T06:22:25.555Z,68.10
2018-07-14T06:24:53.986Z,67.90
2018-07-14T06:27:22.407Z,67.00
2018-07-14T06:29:50.847Z,65.80
2018-07-14T06:32:19.338Z,65.70
2018-07-14T06:34:47.745Z,64.80
2018-07-14T06:37:16.275Z,64.10
2018-07-14T06:39:44.683Z,63.50
2018-07-14T06:42:13.170Z,60.30
2018-07-14T06:44:41.635Z,60.00
2018-07-14T06:49:38.557Z,59.70
2018-07-14T06:52:07.130Z,59.80
2018-07-14T06:54:35.538Z,61.20
2018-07-14T06:59:32.109Z,59.70
2018-07-14T07:02:01.389Z,60.00
2018-07-14T07:04:29.802Z,59.30
2018-07-14T07:06:58.265Z,59.40
2018-07-14T07:09:26.778Z,59.30
2018-07-14T07:11:55.361Z,58.30
2018-07-14T07:14:23.746Z,58.40
2018-07-14T07:16:52.156Z,58.10
2018-07-14T07:19:20.576Z,58.50
2018-07-14T07:24:17.140Z,58.90
2018-07-14T07:26:45.589Z,60.60
2018-07-14T07:29:13.977Z,59.90
2018-07-14T07:31:42.578Z,60.30
2018-07-14T07:34:11.515Z,58.80
2018-07-14T07:36:40.026Z,56.90
2018-07-14T07:39:08.464Z,58.00
2018-07-14T07:41:36.981Z,58.80
2018-07-14T07:44:05.466Z,57.50
2018-07-14T07:46:33.971Z,57.60
2018-07-14T07:49:02.394Z,56.20
2018-07-14T07:51:30.843Z,55.60
2018-07-14T07:53:59.422Z,55.60
2018-07-14T07:56:27.942Z,55.80
2018-07-14T07:58:56.408Z,55.40
2018-07-14T08:01:24.863Z,54.70
2018-07-14T08:03:53.317Z,56.20
2018-07-14T08:06:21.854Z,54.30
2018-07-14T08:08:50.288Z,53.50
2018-07-14T08:11:18.769Z,55.50
2018-07-14T08:13:47.305Z,53.60
2018-07-14T08:16:15.785Z,53.20
2018-07-14T08:18:44.162Z,52.40
2018-07-14T08:21:12.596Z,51.60
2018-07-14T08:23:41.085Z,51.30
2018-07-14T08:26:10.497Z,51.20
2018-07-14T08:28:38.956Z,51.20
2018-07-14T08:31:07.436Z,50.90
2018-07-14T08:33:35.912Z,51.60
2018-07-14T08:36:04.326Z,51.40
2018-07-14T08:38:32.760Z,49.60
2018-07-14T08:41:01.155Z,51.30
2018-07-14T08:43:29.569Z,48.50
2018-07-14T08:45:57.974Z,50.80
2018-07-14T08:48:26.443Z,49.60
2018-07-14T08:50:54.939Z,48.70
2018-07-14T08:55:51.741Z,46.90
2018-07-14T08:58:24.425Z,46.90
2018-07-14T09:00:52.865Z,49.20
2018-07-14T09:03:21.802Z,50.10
2018-07-14T09:05:50.395Z,49.90
2018-07-14T09:08:18.777Z,50.00
2018-07-14T09:10:47.222Z,51.10
2018-07-14T09:13:15.619Z,48.60
2018-07-14T09:15:44.028Z,47.60
2018-07-14T09:18:12.426Z,47.90
2018-07-14T09:20:40.851Z,45.20
2018-07-14T09:23:09.758Z,46.50
2018-07-14T09:25:38.206Z,46.60
2018-07-14T09:28:06.650Z,46.40
2018-07-14T09:30:36.156Z,46.10
2018-07-14T09:33:06.548Z,43.20
2018-07-14T09:35:36.098Z,45.00
2018-07-14T09:38:06.097Z,43.00
2018-07-14T09:40:34.721Z,42.30
2018-07-14T09:43:03.435Z,41.40
2018-07-14T09:45:31.913Z,41.70
2018-07-14T09:48:00.390Z,41.30
2018-07-14T09:50:28.875Z,41.90
2018-07-14T09:52:57.278Z,39.60
2018-07-14T09:55:25.805Z,41.90
2018-07-14T09:57:54.220Z,42.30
2018-07-14T10:00:28.203Z,42.60
2018-07-14T10:02:56.674Z,40.90
2018-07-14T10:05:25.162Z,41.70
2018-07-14T10:07:53.637Z,39.80
2018-07-14T10:10:22.050Z,39.90
2018-07-14T10:12:50.526Z,39.70
2018-07-14T10:17:47.163Z,39.50
2018-07-14T10:20:15.532Z,38.60
2018-07-14T10:22:44.057Z,38.70
2018-07-14T10:25:12.503Z,38.20
2018-07-14T10:27:40.885Z,37.60
2018-07-14T10:30:09.286Z,37.20
2018-07-14T10:32:37.718Z,36.80
2018-07-14T10:35:06.326Z,37.00
2018-07-14T10:37:34.748Z,38.20
2018-07-14T10:40:03.206Z,37.70
2018-07-14T10:42:31.721Z,39.30
2018-07-14T10:45:00.805Z,38.40
2018-07-14T10:47:29.230Z,36.80
2018-07-14T10:49:57.741Z,37.30
2018-07-14T10:52:26.118Z,36.80
2018-07-14T10:54:54.971Z,34.80
2018-07-14T10:57:23.355Z,34.60
2018-07-14T10:59:51.837Z,34.40
2018-07-14T11:02:20.262Z,35.30
2018-07-14T11:04:48.754Z,36.50
2018-07-14T11:07:17.109Z,35.60
2018-07-14T11:09:45.581Z,35.20
2018-07-14T11:12:14.064Z,34.30
2018-07-14T11:14:42.457Z,35.90
2018-07-14T11:17:11.126Z,34.50
2018-07-14T11:19:39.614Z,36.40
2018-07-14T11:22:08.027Z,36.30
2018-07-14T11:24:36.417Z,35.50
2018-07-14T11:27:04.861Z,36.30
2018-07-14T11:29:33.322Z,35.90
2018-07-14T11:32:01.861Z,35.40
2018-07-14T11:34:30.290Z,34.80
2018-07-14T11:36:58.735Z,35.60
2018-07-14T11:39:27.193Z,35.30
2018-07-14T11:41:55.575Z,36.90
2018-07-14T11:44:24.274Z,36.60
2018-07-14T11:46:52.744Z,34.60
2018-07-14T11:49:21.163Z,34.60
2018-07-14T11:51:49.574Z,34.00
2018-07-14T11:54:18.091Z,33.70
2018-07-14T11:56:46.773Z,33.10
2018-07-14T11:59:15.217Z,32.00
2018-07-14T12:01:43.749Z,31.60
2018-07-14T12:04:12.213Z,33.30
2018-07-14T12:06:40.646Z,31.00
2018-07-14T12:09:09.062Z,32.10
2018-07-14T12:11:37.473Z,30.10
2018-07-14T12:14:05.969Z,29.90
2018-07-14T12:16:34.584Z,31.10
2018-07-14T12:19:03.067Z,30.00
2018-07-14T12:21:31.528Z,31.50
2018-07-14T12:26:28.381Z,29.30
2018-07-14T12:28:56.793Z,31.40
2018-07-14T12:31:26.249Z,32.00
2018-07-14T12:33:54.777Z,31.60
2018-07-14T12:36:23.347Z,28.80
2018-07-14T12:38:51.722Z,29.50
2018-07-14T12:41:20.265Z,29.10
2018-07-14T12:43:48.818Z,28.70
2018-07-14T12:46:17.257Z,28.80
2018-07-14T12:48:45.673Z,29.30
2018-07-14T12:51:14.119Z,28.10
2018-07-14T12:53:42.520Z,28.70
2018-07-14T12:56:14.293Z,28.00
2018-07-14T12:58:42.691Z,29.00
2018-07-14T13:01:11.113Z,28.20
2018-07-14T13:03:40.242Z,28.90
2018-07-14T13:06:08.657Z,28.70
2018-07-14T13:08:37.076Z,29.20
2018-07-14T13:11:05.583Z,28.20
2018-07-14T13:16:02.152Z,29.70
2018-07-14T13:18:30.646Z,29.50
2018-07-14T13:20:59.076Z,29.40
2018-07-14T13:23:27.638Z,29.30
2018-07-14T13:25:56.112Z,29.10
2018-07-14T13:28:24.557Z,29.80
2018-07-14T13:33:21.162Z,30.30
2018-07-14T13:35:49.641Z,31.50
2018-07-14T13:38:18.145Z,31.00
2018-07-14T13:40:46.595Z,29.60
2018-07-14T13:43:14.961Z,30.30
2018-07-14T13:45:43.458Z,32.00
2018-07-14T13:48:11.860Z,31.00
2018-07-14T13:50:40.770Z,32.40
2018-07-14T13:53:09.158Z,31.30
2018-07-14T13:55:37.553Z,33.40
2018-07-14T13:58:06.049Z,32.00
2018-07-14T14:03:02.606Z,31.10
2018-07-14T14:05:31.082Z,30.10
2018-07-14T14:07:59.505Z,29.90
2018-07-14T14:10:28.130Z,29.50
2018-07-14T14:12:56.639Z,29.40
2018-07-14T14:15:25.107Z,29.90
2018-07-14T14:17:53.499Z,30.90
2018-07-14T14:20:22.307Z,30.90
2018-07-14T14:22:50.766Z,31.70
2018-07-14T14:25:19.159Z,30.10
2018-07-14T14:27:47.550Z,31.30
2018-07-14T14:30:15.950Z,29.50
2018-07-14T14:32:44.355Z,31.20
2018-07-14T14:35:12.769Z,29.50
2018-07-14T14:37:41.299Z,30.90
2018-07-14T14:40:09.726Z,31.20
2018-07-14T14:42:38.144Z,30.50
2018-07-14T14:45:06.923Z,30.50
2018-07-14T14:47:35.493Z,30.40
2018-07-14T14:50:04.013Z,32.50
2018-07-14T14:52:32.425Z,31.60
2018-07-14T14:55:00.902Z,31.80
2018-07-14T14:57:29.343Z,31.90
2018-07-14T14:59:57.755Z,32.70
2018-07-14T15:02:26.145Z,31.80
2018-07-14T15:04:54.617Z,31.50
2018-07-14T15:07:23.160Z,32.60
2018-07-14T15:09:51.594Z,31.50
2018-07-14T15:12:19.993Z,30.70
2018-07-14T15:14:48.369Z,30.60
2018-07-14T15:17:16.788Z,30.00
2018-07-14T15:19:45.286Z,31.00
2018-07-14T15:22:13.732Z,31.40
2018-07-14T15:24:43.086Z,31.30
2018-07-14T15:27:11.590Z,31.00
2018-07-14T15:29:40.074Z,31.10
2018-07-14T15:32:08.546Z,31.40
2018-07-14T15:34:36.910Z,31.40
2018-07-14T15:37:07.837Z,30.60
2018-07-14T15:39:36.270Z,31.20
2018-07-14T15:42:04.694Z,31.00
2018-07-14T15:44:33.162Z,31.40
2018-07-14T15:47:01.547Z,30.80
2018-07-14T15:51:58.113Z,30.80
2018-07-14T15:54:26.594Z,30.80
2018-07-14T15:56:55.028Z,31.00
2018-07-14T15:59:23.409Z,30.60
2018-07-14T16:01:51.833Z,31.90
2018-07-14T16:06:48.383Z,32.20
2018-07-14T16:09:16.923Z,32.30
2018-07-14T16:11:45.345Z,32.80
2018-07-14T16:16:41.835Z,33.20
2018-07-14T16:19:10.236Z,32.50
2018-07-14T16:21:38.666Z,31.60
2018-07-14T16:24:07.084Z,31.60
2018-07-14T16:26:35.589Z,32.80
2018-07-14T16:29:04.009Z,32.70
2018-07-14T16:31:32.414Z,33.10
2018-07-14T16:34:00.805Z,32.20
2018-07-14T16:36:29.188Z,33.00
2018-07-14T16:38:57.689Z,32.50
2018-07-14T16:41:26.121Z,32.70
2018-07-14T16:43:54.555Z,32.00
2018-07-14T16:46:22.961Z,32.40
2018-07-14T16:48:51.443Z,32.60
2018-07-14T16:51:19.990Z,34.10
2018-07-14T16:53:48.409Z,33.20
2018-07-14T16:56:16.842Z,33.60
2018-07-14T16:58:45.401Z,34.40
2018-07-14T17:01:16.858Z,33.20
2018-07-14T17:03:45.342Z,34.00
2018-07-14T17:08:42.337Z,32.90
2018-07-14T17:11:11.447Z,33.40
2018-07-14T17:13:39.840Z,34.10
2018-07-14T17:16:08.279Z,32.30
2018-07-14T17:18:36.798Z,33.00
2018-07-14T17:21:05.218Z,32.70
2018-07-14T17:23:33.669Z,32.60
2018-07-14T17:26:02.435Z,32.10
2018-07-14T17:28:30.862Z,32.40
2018-07-14T17:30:59.345Z,32.00
2018-07-14T17:33:28.156Z,32.90
2018-07-14T17:35:56.679Z,32.60
2018-07-14T17:38:25.133Z,32.00
2018-07-14T17:40:53.743Z,32.50
2018-07-14T17:43:22.160Z,32.20
2018-07-14T17:45:50.598Z,32.50
2018-07-14T17:48:19.036Z,33.50
2018-07-14T17:50:47.415Z,32.10
2018-07-14T17:53:15.906Z,33.20
2018-07-14T17:55:45.537Z,33.90
2018-07-14T17:58:14.212Z,32.80
2018-07-14T18:00:43.649Z,33.70
2018-07-14T18:03:12.846Z,33.70
2018-07-14T18:05:41.416Z,33.80
2018-07-14T18:08:09.913Z,35.20
2018-07-14T18:10:38.416Z,34.50
2018-07-14T18:13:06.894Z,36.00
2018-07-14T18:15:35.353Z,35.40
2018-07-14T18:18:03.889Z,36.00
2018-07-14T18:20:32.341Z,36.10
2018-07-14T18:23:00.802Z,35.80
2018-07-14T18:25:29.350Z,36.30
2018-07-14T18:27:57.886Z,35.90
2018-07-14T18:30:26.289Z,36.90
2018-07-14T18:32:54.831Z,36.90
2018-07-14T18:35:23.327Z,36.70
2018-07-14T18:37:52.309Z,36.90
2018-07-14T18:40:20.758Z,37.70
2018-07-14T18:42:49.156Z,37.60
2018-07-14T18:47:45.877Z,38.10
2018-07-14T18:50:15.160Z,37.70
2018-07-14T18:52:43.666Z,38.20
2018-07-14T18:55:12.099Z,38.10
2018-07-14T18:57:40.625Z,38.30
2018-07-14T19:00:09.039Z,38.80
2018-07-14T19:02:37.581Z,38.10
2018-07-14T19:05:06.063Z,39.10
2018-07-14T19:07:34.507Z,39.10
2018-07-14T19:10:02.997Z,38.70
2018-07-14T19:12:31.542Z,39.10
2018-07-14T19:15:00.126Z,39.30
2018-07-14T19:17:28.612Z,39.00
2018-07-14T19:22:25.090Z,39.20
2018-07-14T19:24:53.577Z,39.10
2018-07-14T19:27:22.048Z,39.60
2018-07-14T19:29:50.526Z,38.80
2018-07-14T19:32:19.038Z,38.40
2018-07-14T19:34:47.553Z,38.50
2018-07-14T19:37:15.918Z,38.30
2018-07-14T19:39:44.373Z,39.40
2018-07-14T19:42:12.838Z,38.80
2018-07-14T19:44:41.510Z,39.30
2018-07-14T19:47:09.969Z,39.30
2018-07-14T19:49:38.439Z,38.80
2018-07-14T19:52:06.825Z,39.10
2018-07-14T19:54:35.310Z,39.30
2018-07-14T19:57:03.801Z,39.60
2018-07-14T19:59:32.242Z,39.70
2018-07-14T20:02:00.661Z,40.20
2018-07-14T20:04:29.069Z,40.00
2018-07-14T20:09:25.637Z,40.90
2018-07-14T20:11:54.142Z,41.00
2018-07-14T20:14:22.573Z,42.40
2018-07-14T20:16:50.945Z,42.50
2018-07-14T20:19:21.102Z,42.70
2018-07-14T20:21:49.465Z,43.40
2018-07-14T20:24:18.502Z,43.10
2018-07-14T20:26:47.012Z,43.50
2018-07-14T20:29:15.581Z,43.90
2018-07-14T20:31:43.992Z,43.20
2018-07-14T20:34:13.066Z,44.00
2018-07-14T20:36:41.477Z,44.70
2018-07-14T20:39:09.837Z,43.70
2018-07-14T20:41:38.276Z,45.10
2018-07-14T20:44:06.758Z,44.80
2018-07-14T20:46:35.207Z,45.90
2018-07-14T20:49:03.606Z,46.50
2018-07-14T20:51:32.009Z,46.50
2018-07-14T20:54:00.491Z,47.20
2018-07-14T20:56:29.025Z,48.10
2018-07-14T20:58:57.453Z,48.10
2018-07-14T21:01:25.873Z,48.40
2018-07-14T21:03:54.301Z,49.20
2018-07-14T21:06:22.696Z,49.00
2018-07-14T21:08:51.158Z,49.10
2018-07-14T21:11:19.740Z,49.40
2018-07-14T21:13:48.154Z,50.00
2018-07-14T21:16:16.657Z,49.50
2018-07-14T21:18:45.093Z,49.90
2018-07-14T21:21:13.561Z,50.30
2018-07-14T21:23:41.986Z,50.70
2018-07-14T21:26:10.441Z,50.90
2018-07-14T21:28:38.877Z,51.40
2018-07-14T21:31:07.493Z,51.60
2018-07-14T21:33:42.570Z,52.10
2018-07-14T21:36:11.009Z,52.20
2018-07-14T21:38:39.390Z,52.60
2018-07-14T21:41:07.865Z,52.70
2018-07-14T21:43:36.228Z,52.80
2018-07-14T21:46:04.817Z,53.00
2018-07-14T21:48:33.269Z,53.30
2018-07-14T21:51:02.077Z,53.60
2018-07-14T21:53:30.722Z,53.50
2018-07-14T21:55:59.814Z,53.60
2018-07-14T21:58:28.761Z,54.40
2018-07-14T22:01:04.762Z,54.10
2018-07-14T22:03:33.953Z,54.60
2018-07-14T22:06:02.578Z,54.30
2018-07-14T22:08:31.432Z,54.30
2018-07-14T22:13:28.220Z,54.60
2018-07-14T22:15:56.890Z,55.10
2018-07-14T22:20:53.409Z,55.30
2018-07-14T22:23:21.812Z,55.60
2018-07-14T22:25:50.165Z,55.40
2018-07-14T22:28:18.568Z,55.60
2018-07-14T22:30:46.967Z,55.90
2018-07-14T22:33:15.378Z,56.00
2018-07-14T22:35:43.818Z,56.20
2018-07-14T22:38:12.909Z,56.10
2018-07-14T22:40:41.281Z,56.40
2018-07-14T22:45:37.837Z,56.50
2018-07-14T22:48:06.230Z,56.60
2018-07-14T22:50:34.661Z,57.10
2018-07-14T22:53:03.149Z,56.90
2018-07-14T22:55:31.577Z,56.70
2018-07-14T23:00:28.108Z,57.00
2018-07-14T23:02:56.487Z,57.50
2018-07-14T23:05:24.988Z,57.40
2018-07-14T23:07:53.429Z,57.70
2018-07-14T23:10:21.826Z,57.80
2018-07-14T23:12:50.789Z,57.70
2018-07-14T23:15:19.222Z,57.80
2018-07-14T23:17:47.626Z,57.90
2018-07-14T23:22:44.132Z,57.80
2018-07-14T23:25:12.517Z,57.80
2018-07-14T23:27:40.980Z,58.10
2018-07-14T23:30:09.453Z,58.20
2018-07-14T23:32:37.883Z,58.20
2018-07-14T23:35:06.373Z,58.40
2018-07-14T23:37:34.775Z,58.40
2018-07-14T23:40:03.334Z,58.20
2018-07-14T23:42:31.814Z,58.70
2018-07-14T23:45:00.285Z,58.60
2018-07-14T23:47:28.700Z,58.80
2018-07-14T23:49:57.782Z,58.80
2018-07-14T23:52:26.149Z,58.70
2018-07-14T23:54:55.099Z,58.70
2018-07-14T23:57:23.512Z,59.20
2018-07-14T23:59:51.899Z,58.90
